Time;durP1;ratioP1;P1;durP2;ratioP2;P2;SDS_P1;SDS_P2;PMS_P1;PMS_P2;Temp;Humidity;BMP_temperature;BMP_pressure;BME280_temperature;BME280_humidity;BME280_pressure;Samples;Min_cycle;Max_cycle;Signal;HPM_P1;HPM_P2
2020/12/27 00:02:10;;;;;;;5.10;1.90;;;1.10;55.80;;;;;;6188684;23;20036;-83
2020/12/27 00:04:37;;;;;;;5.50;2.47;;;1.10;55.80;;;;;;6190102;23;20043;-83
2020/12/27 00:07:07;;;;;;;4.07;2.23;;;1.10;55.80;;;;;;6188993;23;20270;-83
2020/12/27 00:09:33;;;;;;;3.73;1.83;;;1.10;55.80;;;;;;6188739;23;20020;-84
2020/12/27 00:11:58;;;;;;;3.40;1.40;;;1.10;55.90;;;;;;6189387;23;20028;-83
2020/12/27 00:14:24;;;;;;;3.30;1.57;;;1.00;55.80;;;;;;6189749;23;20108;-83
2020/12/27 00:16:50;;;;;;;4.07;1.90;;;1.00;55.90;;;;;;6189806;23;20301;-82
2020/12/27 00:19:15;;;;;;;7.63;3.50;;;1.00;55.90;;;;;;6189568;23;20005;-82
2020/12/27 00:21:41;;;;;;;5.27;2.80;;;0.90;55.90;;;;;;6189325;23;20115;-82
2020/12/27 00:24:07;;;;;;;6.03;2.90;;;0.90;56.30;;;;;;6216166;23;20076;-82
2020/12/27 00:26:33;;;;;;;5.53;3.60;;;1.00;56.40;;;;;;6189738;23;20013;-82
2020/12/27 00:28:59;;;;;;;7.40;4.10;;;0.90;56.40;;;;;;6190083;23;20051;-82
2020/12/27 00:31:24;;;;;;;5.97;3.10;;;0.90;56.70;;;;;;6189650;23;20012;-82
2020/12/27 00:33:50;;;;;;;4.20;2.50;;;0.90;56.90;;;;;;6189724;23;20420;-83
2020/12/27 00:36:22;;;;;;;4.90;2.83;;;0.90;57.00;;;;;;6188839;23;20055;-83
2020/12/27 00:38:48;;;;;;;3.00;1.63;;;0.90;56.80;;;;;;6188347;23;20084;-83
2020/12/27 00:41:21;;;;;;;3.63;1.60;;;0.90;56.90;;;;;;6189594;23;20012;-83
2020/12/27 00:43:48;;;;;;;4.23;1.93;;;0.90;56.90;;;;;;6188554;23;20428;-84
2020/12/27 00:46:14;;;;;;;3.37;1.93;;;0.80;56.80;;;;;;6188451;23;20015;-83
2020/12/27 00:48:40;;;;;;;3.03;1.90;;;0.80;56.80;;;;;;6189342;23;20236;-83
2020/12/27 00:51:06;;;;;;;3.90;2.20;;;0.80;57.00;;;;;;6188366;23;20487;-83
2020/12/27 00:53:32;;;;;;;3.23;1.60;;;0.80;56.90;;;;;;6216085;23;20004;-83
2020/12/27 00:55:57;;;;;;;4.93;1.90;;;0.80;56.70;;;;;;6188325;23;20028;-83
2020/12/27 00:58:23;;;;;;;5.03;1.90;;;0.80;56.80;;;;;;6188753;23;20088;-83
2020/12/27 01:00:49;;;;;;;5.80;2.37;;;0.80;56.90;;;;;;6187656;23;20000;-83
2020/12/27 01:03:14;;;;;;;4.23;2.00;;;0.80;56.60;;;;;;6214599;23;20057;-83
2020/12/27 01:05:43;;;;;;;8.63;2.30;;;0.80;56.60;;;;;;6215387;23;20476;-83
2020/12/27 01:08:08;;;;;;;6.80;3.00;;;0.70;56.80;;;;;;6215301;23;20071;-84
2020/12/27 01:10:34;;;;;;;5.67;3.20;;;0.70;56.90;;;;;;6188511;23;20310;-84
2020/12/27 01:13:03;;;;;;;11.97;3.43;;;0.60;56.80;;;;;;6187480;23;20055;-83
2020/12/27 01:15:28;;;;;;;5.63;3.00;;;0.70;57.00;;;;;;6187324;23;20005;-83
2020/12/27 01:17:54;;;;;;;8.47;3.77;;;0.50;57.00;;;;;;6186829;23;21169;-83
2020/12/27 01:20:20;;;;;;;10.60;4.67;;;0.40;57.20;;;;;;6187130;23;20005;-83
2020/12/27 01:22:46;;;;;;;8.47;4.50;;;0.50;57.50;;;;;;6213012;23;20417;-84
2020/12/27 01:25:15;;;;;;;7.43;3.90;;;0.50;57.60;;;;;;6213730;23;20000;-84
2020/12/27 01:27:41;;;;;;;8.17;3.70;;;0.40;57.70;;;;;;6186325;23;20751;-84
2020/12/27 01:30:07;;;;;;;8.10;3.37;;;0.40;57.90;;;;;;6186625;23;20353;-84
2020/12/27 01:32:33;;;;;;;3.87;2.20;;;0.40;57.90;;;;;;6185914;23;20256;-83
2020/12/27 01:34:59;;;;;;;4.47;2.37;;;0.30;57.80;;;;;;6186932;23;20424;-83
2020/12/27 01:37:25;;;;;;;5.27;2.53;;;0.20;58.40;;;;;;6186863;23;20051;-83
2020/12/27 01:39:51;;;;;;;5.10;2.50;;;0.20;57.90;;;;;;6185992;23;20439;-83
2020/12/27 01:42:16;;;;;;;5.53;2.23;;;0.20;58.00;;;;;;6186437;23;20018;-83
2020/12/27 01:44:45;;;;;;;5.60;2.47;;;0.10;58.10;;;;;;6187019;23;20011;-83
2020/12/27 01:47:20;;;;;;;7.50;2.70;;;0.10;58.20;;;;;;6213815;23;20085;-83
2020/12/27 01:49:49;;;;;;;5.53;2.77;;;0.10;58.30;;;;;;6186159;23;20319;-83
2020/12/27 01:52:18;;;;;;;7.53;1.93;;;0.30;58.30;;;;;;6186982;23;20256;-83
2020/12/27 01:54:45;;;;;;;10.87;2.73;;;0.20;58.20;;;;;;6212544;23;20224;-83
2020/12/27 01:57:17;;;;;;;4.57;2.50;;;0.20;58.20;;;;;;6187207;23;20232;-83
2020/12/27 01:59:42;;;;;;;10.95;3.13;;;0.10;58.30;;;;;;6186820;23;20292;-83
2020/12/27 02:02:08;;;;;;;9.10;3.17;;;0.00;58.30;;;;;;6187105;23;20009;-82
2020/12/27 02:04:35;;;;;;;12.27;4.47;;;0.10;58.30;;;;;;6186924;23;20020;-82
2020/12/27 02:07:04;;;;;;;13.87;4.20;;;0.10;58.30;;;;;;6186983;23;20236;-82
2020/12/27 02:09:30;;;;;;;8.43;3.13;;;0.10;58.60;;;;;;6187519;23;20231;-81
2020/12/27 02:12:13;;;;;;;6.23;2.27;;;0.10;58.60;;;;;;6187652;23;20255;-82
2020/12/27 02:14:39;;;;;;;4.95;2.10;;;0.10;58.60;;;;;;6186317;23;20239;-83
2020/12/27 02:17:06;;;;;;;5.30;1.53;;;0.10;58.50;;;;;;6185872;23;20026;-83
2020/12/27 02:19:33;;;;;;;7.13;2.10;;;0.10;58.20;;;;;;6186287;23;20238;-83
2020/12/27 02:22:01;;;;;;;2.83;1.57;;;0.00;58.60;;;;;;6187638;23;20327;-83
2020/12/27 02:24:27;;;;;;;2.07;1.23;;;0.10;59.00;;;;;;6186735;23;20326;-83
2020/12/27 02:26:57;;;;;;;2.83;1.80;;;0.10;58.70;;;;;;6187314;23;20272;-83
2020/12/27 02:29:24;;;;;;;4.47;1.67;;;0.10;59.00;;;;;;6187425;23;20016;-83
2020/12/27 02:31:50;;;;;;;3.37;1.97;;;0.20;59.30;;;;;;6185953;23;20324;-83
2020/12/27 02:34:15;;;;;;;4.43;2.23;;;0.20;59.10;;;;;;6212031;23;20335;-83
2020/12/27 02:36:41;;;;;;;2.53;1.43;;;0.20;59.00;;;;;;6213316;23;20057;-83
2020/12/27 02:39:09;;;;;;;5.00;1.77;;;0.20;59.20;;;;;;6186398;23;20327;-84
2020/12/27 02:41:34;;;;;;;2.70;1.33;;;0.20;59.70;;;;;;6187016;23;20087;-84
2020/12/27 02:44:00;;;;;;;2.97;1.20;;;0.30;59.60;;;;;;6212449;23;20309;-84
2020/12/27 02:46:27;;;;;;;2.33;1.10;;;0.30;60.00;;;;;;6213326;23;20018;-84
2020/12/27 02:48:53;;;;;;;1.57;1.00;;;0.30;60.00;;;;;;6187320;23;20088;-84
2020/12/27 02:51:20;;;;;;;3.57;2.00;;;0.30;59.80;;;;;;6186211;23;20247;-84
2020/12/27 02:53:49;;;;;;;4.07;1.60;;;0.20;59.30;;;;;;6186379;23;20224;-83
2020/12/27 02:56:20;;;;;;;2.50;1.47;;;0.10;59.00;;;;;;6189194;23;20236;-83
2020/12/27 02:58:46;;;;;;;5.43;2.30;;;0.00;59.50;;;;;;6188826;23;20228;-83
2020/12/27 03:01:12;;;;;;;4.50;2.47;;;0.10;59.80;;;;;;6187594;23;20243;-83
2020/12/27 03:03:38;;;;;;;6.83;2.70;;;0.20;59.50;;;;;;6214461;23;20259;-83
2020/12/27 03:06:07;;;;;;;4.73;2.67;;;0.10;59.10;;;;;;6187576;23;20236;-84
2020/12/27 03:08:33;;;;;;;5.10;2.53;;;0.10;59.20;;;;;;6188836;23;20031;-84
2020/12/27 03:10:58;;;;;;;3.50;2.10;;;0.10;59.20;;;;;;6187546;23;20279;-84
2020/12/27 03:13:24;;;;;;;3.70;1.73;;;0.00;59.00;;;;;;6187683;23;20016;-83
2020/12/27 03:15:54;;;;;;;2.47;1.50;;;-0.20;59.10;;;;;;6215524;23;19997;-83
2020/12/27 03:18:23;;;;;;;3.00;1.57;;;-0.10;59.50;;;;;;6188896;23;20008;-83
2020/12/27 03:20:50;;;;;;;4.60;1.57;;;-0.10;59.30;;;;;;6188283;23;20277;-83
2020/12/27 03:23:16;;;;;;;3.87;1.33;;;-0.20;59.20;;;;;;6189025;23;20224;-84
2020/12/27 03:25:42;;;;;;;5.07;1.40;;;-0.30;59.30;;;;;;6188439;23;20571;-84
2020/12/27 03:28:08;;;;;;;3.60;1.80;;;-0.30;59.40;;;;;;6188292;23;20091;-84
2020/12/27 03:30:34;;;;;;;3.13;1.73;;;-0.30;59.50;;;;;;6187913;23;20235;-84
2020/12/27 03:32:59;;;;;;;3.83;1.33;;;-0.20;59.40;;;;;;6188300;23;20343;-84
2020/12/27 03:35:25;;;;;;;3.23;1.10;;;-0.20;59.20;;;;;;6187691;23;20035;-84
2020/12/27 03:37:51;;;;;;;3.13;1.70;;;-0.20;59.30;;;;;;6186166;23;20070;-84
2020/12/27 03:40:17;;;;;;;3.43;1.60;;;-0.20;59.20;;;;;;6186756;23;20601;-83
2020/12/27 03:42:43;;;;;;;2.43;1.50;;;-0.10;59.10;;;;;;6187355;23;20008;-83
2020/12/27 03:45:09;;;;;;;7.43;1.70;;;-0.10;59.10;;;;;;6214133;23;20428;-83
2020/12/27 03:47:34;;;;;;;4.60;1.60;;;-0.10;58.90;;;;;;6187226;23;20008;-83
2020/12/27 03:50:00;;;;;;;3.90;1.37;;;-0.20;59.10;;;;;;6187567;23;20028;-83
2020/12/27 03:52:26;;;;;;;2.67;1.37;;;-0.20;58.90;;;;;;6187014;23;20035;-83
2020/12/27 03:54:52;;;;;;;3.63;1.57;;;-0.20;59.10;;;;;;6187468;23;20004;-83
2020/12/27 03:57:17;;;;;;;7.87;1.57;;;-0.20;59.10;;;;;;6213575;23;20039;-83
2020/12/27 03:59:43;;;;;;;2.60;1.43;;;-0.30;59.10;;;;;;6188186;23;20000;-83
2020/12/27 04:02:08;;;;;;;3.10;1.73;;;-0.20;59.40;;;;;;6187542;23;20005;-83
2020/12/27 04:04:35;;;;;;;4.70;1.70;;;-0.20;59.30;;;;;;6187720;23;20087;-83
2020/12/27 04:07:00;;;;;;;6.23;1.73;;;-0.10;59.30;;;;;;6187866;23;20008;-84
2020/12/27 04:09:28;;;;;;;4.17;1.70;;;-0.20;59.30;;;;;;6188072;23;20235;-84
2020/12/27 04:11:54;;;;;;;4.40;1.87;;;-0.10;59.50;;;;;;6187209;23;20007;-83
2020/12/27 04:14:19;;;;;;;6.47;2.13;;;-0.20;59.40;;;;;;6187456;23;20239;-83
2020/12/27 04:16:45;;;;;;;3.23;1.70;;;-0.20;59.50;;;;;;6187523;23;20012;-83
2020/12/27 04:19:11;;;;;;;2.40;1.40;;;-0.30;59.30;;;;;;6214514;23;20007;-83
2020/12/27 04:21:36;;;;;;;2.50;1.67;;;-0.30;59.40;;;;;;6188238;23;20012;-83
2020/12/27 04:24:02;;;;;;;3.53;1.90;;;-0.30;59.50;;;;;;6186710;23;20005;-83
2020/12/27 04:26:28;;;;;;;2.27;1.43;;;-0.20;59.50;;;;;;6214081;23;20000;-83
2020/12/27 04:28:53;;;;;;;3.20;1.63;;;-0.20;59.50;;;;;;6187503;23;20088;-83
2020/12/27 04:31:20;;;;;;;4.33;1.80;;;-0.20;59.30;;;;;;6186412;23;20067;-83
2020/12/27 04:33:49;;;;;;;4.43;1.60;;;-0.20;59.30;;;;;;6187997;23;20005;-83
2020/12/27 04:36:19;;;;;;;3.03;1.50;;;-0.20;59.30;;;;;;6186461;23;20326;-83
2020/12/27 04:38:45;;;;;;;5.13;2.20;;;-0.20;59.30;;;;;;6187698;23;20258;-83
2020/12/27 04:41:16;;;;;;;7.37;2.77;;;-0.20;59.20;;;;;;6186247;23;20279;-83
2020/12/27 04:43:44;;;;;;;5.00;3.30;;;-0.30;59.20;;;;;;6214012;23;20001;-83
2020/12/27 04:46:11;;;;;;;8.57;3.40;;;-0.30;59.40;;;;;;6186395;23;20679;-83
2020/12/27 04:48:42;;;;;;;6.10;3.30;;;-0.30;59.50;;;;;;6187490;23;20326;-83
2020/12/27 04:51:10;;;;;;;5.33;3.10;;;-0.20;59.50;;;;;;6186935;23;20255;-83
2020/12/27 04:53:37;;;;;;;8.40;3.37;;;-0.20;59.50;;;;;;6186739;23;20242;-83
2020/12/27 04:56:05;;;;;;;6.10;3.20;;;-0.20;59.40;;;;;;6187700;23;20242;-83
2020/12/27 04:58:31;;;;;;;5.80;2.93;;;-0.30;59.40;;;;;;6185825;23;20239;-83
2020/12/27 05:01:01;;;;;;;7.37;2.50;;;-0.20;59.70;;;;;;6186924;23;20282;-83
2020/12/27 05:03:27;;;;;;;5.20;2.43;;;-0.10;59.50;;;;;;6187997;23;20240;-83
2020/12/27 05:05:55;;;;;;;5.00;2.13;;;-0.20;59.40;;;;;;6188244;23;20703;-83
2020/12/27 05:08:21;;;;;;;5.50;2.67;;;-0.10;59.70;;;;;;6186514;23;20232;-83
2020/12/27 05:10:47;;;;;;;6.63;2.10;;;-0.10;59.40;;;;;;6186441;23;20571;-83
2020/12/27 05:13:14;;;;;;;6.10;2.50;;;-0.10;59.70;;;;;;6187964;23;20244;-84
2020/12/27 05:15:41;;;;;;;6.30;2.37;;;-0.20;59.60;;;;;;6213925;23;20258;-83
2020/12/27 05:18:08;;;;;;;4.30;2.37;;;-0.20;59.40;;;;;;6187327;23;20239;-83
2020/12/27 05:20:36;;;;;;;5.67;2.37;;;-0.20;59.50;;;;;;6187919;23;20242;-83
2020/12/27 05:23:05;;;;;;;8.80;2.60;;;-0.20;59.60;;;;;;6187611;23;20244;-83
2020/12/27 05:25:37;;;;;;;3.20;2.17;;;-0.30;59.40;;;;;;6186537;23;20303;-83
2020/12/27 05:28:09;;;;;;;5.20;2.95;;;-0.30;59.60;;;;;;6187841;23;20236;-83
2020/12/27 05:30:36;;;;;;;3.90;2.40;;;-0.30;59.70;;;;;;6186862;23;20263;-83
2020/12/27 05:33:17;;;;;;;8.23;2.77;;;-0.30;59.80;;;;;;6213572;23;20000;-83
2020/12/27 05:35:43;;;;;;;11.40;5.23;;;-0.40;59.70;;;;;;6186145;23;20243;-83
2020/12/27 05:38:10;;;;;;;13.27;3.90;;;-0.40;60.00;;;;;;6186675;23;20239;-84
2020/12/27 05:40:38;;;;;;;4.80;2.30;;;-0.40;60.10;;;;;;6185360;23;20390;-84
2020/12/27 05:43:17;;;;;;;4.17;2.13;;;-0.30;60.30;;;;;;6187035;23;20239;-84
2020/12/27 05:45:44;;;;;;;4.57;2.10;;;-0.30;60.20;;;;;;6186466;23;20628;-84
2020/12/27 05:48:10;;;;;;;5.17;1.70;;;-0.30;60.30;;;;;;6187380;23;20682;-84
2020/12/27 05:50:38;;;;;;;3.97;1.93;;;-0.30;60.40;;;;;;6186630;23;20235;-84
2020/12/27 05:53:16;;;;;;;3.50;1.80;;;-0.30;60.20;;;;;;6185560;23;20009;-84
2020/12/27 05:55:48;;;;;;;4.53;1.80;;;-0.30;60.40;;;;;;6186979;23;20290;-84
2020/12/27 05:58:24;;;;;;;4.77;1.93;;;-0.50;60.40;;;;;;6186885;23;20232;-84
2020/12/27 06:00:51;;;;;;;3.77;2.00;;;-0.40;60.60;;;;;;6211897;23;20319;-84
2020/12/27 06:03:25;;;;;;;3.73;2.00;;;-0.40;60.50;;;;;;6213060;23;20220;-84
2020/12/27 06:05:56;;;;;;;4.30;2.17;;;-0.40;60.60;;;;;;6212714;23;20805;-84
2020/12/27 06:08:28;;;;;;;6.40;2.20;;;-0.40;60.90;;;;;;6186552;23;20269;-84
2020/12/27 06:11:12;;;;;;;4.67;2.10;;;-0.30;60.90;;;;;;6184544;23;20236;-83
2020/12/27 06:13:56;;;;;;;5.73;2.43;;;-0.40;60.50;;;;;;6187595;23;20279;-83
2020/12/27 06:16:36;;;;;;;10.23;3.03;;;-0.30;60.70;;;;;;6186780;23;20224;-83
2020/12/27 06:19:25;;;;;;;4.33;2.10;;;-0.30;60.40;;;;;;6187794;23;20295;-84
2020/12/27 06:22:06;;;;;;;4.43;2.43;;;-0.40;60.20;;;;;;6188901;23;20619;-82
2020/12/27 06:24:32;;;;;;;4.27;2.20;;;-0.40;60.10;;;;;;6188829;23;20239;-82
2020/12/27 06:26:59;;;;;;;6.27;2.73;;;-0.40;60.00;;;;;;6215444;23;20630;-82
2020/12/27 06:30:00;;;;;;;5.90;2.70;;;-0.50;60.10;;;;;;6214080;23;20248;-82
2020/12/27 06:32:29;;;;;;;6.60;3.57;;;-0.40;60.10;;;;;;6133979;23;20263;-82
2020/12/27 06:34:55;;;;;;;7.03;4.30;;;-0.50;60.00;;;;;;6189342;23;20258;-82
2020/12/27 06:37:21;;;;;;;8.63;3.67;;;-0.50;60.10;;;;;;6189511;23;20240;-82
2020/12/27 06:39:47;;;;;;;8.87;3.80;;;-0.40;60.00;;;;;;6189354;23;20474;-82
2020/12/27 06:42:18;;;;;;;6.13;3.13;;;-0.50;59.80;;;;;;6189690;23;20043;-82
2020/12/27 06:44:43;;;;;;;6.43;3.00;;;-0.60;60.10;;;;;;6188849;23;20005;-82
2020/12/27 06:47:11;;;;;;;5.40;2.90;;;-0.60;60.20;;;;;;6189003;23;20231;-82
2020/12/27 06:49:37;;;;;;;7.67;3.20;;;-0.60;60.00;;;;;;6190064;23;20013;-82
2020/12/27 06:52:23;;;;;;;7.57;3.00;;;-0.60;60.00;;;;;;6217109;23;20255;-82
2020/12/27 06:54:51;;;;;;;6.30;2.93;;;-0.60;60.20;;;;;;6188803;23;20698;-83
2020/12/27 06:57:37;;;;;;;6.63;2.60;;;-0.50;60.00;;;;;;6213476;23;20227;-83
2020/12/27 07:00:22;;;;;;;9.33;5.17;;;-0.50;60.10;;;;;;6185207;23;20228;-83
2020/12/27 07:02:49;;;;;;;11.23;6.77;;;-0.60;60.10;;;;;;6187532;23;20244;-83
2020/12/27 07:05:28;;;;;;;16.90;8.23;;;-0.60;60.20;;;;;;6216129;23;20228;-83
2020/12/27 07:07:54;;;;;;;17.23;7.23;;;-0.60;60.30;;;;;;6216336;23;20756;-83
2020/12/27 07:10:26;;;;;;;14.37;7.60;;;-0.60;60.40;;;;;;6189944;23;20283;-83
2020/12/27 07:13:14;;;;;;;19.87;10.33;;;-0.60;60.40;;;;;;6190782;23;20028;-84
2020/12/27 07:15:49;;;;;;;27.87;14.97;;;-0.60;60.40;;;;;;6217396;23;20929;-84
2020/12/27 07:18:26;;;;;;;21.63;10.73;;;-0.70;60.30;;;;;;6217679;23;20322;-84
2020/12/27 07:20:57;;;;;;;23.40;12.57;;;-0.60;60.50;;;;;;6190811;23;20238;-82
2020/12/27 07:23:29;;;;;;;22.03;11.03;;;-0.60;60.40;;;;;;6189647;23;20242;-82
2020/12/27 07:26:00;;;;;;;11.55;6.20;;;-0.70;60.40;;;;;;6189800;23;20224;-82
2020/12/27 07:28:27;;;;;;;14.07;6.33;;;-0.70;60.40;;;;;;6189875;23;20012;-82
2020/12/27 07:30:59;;;;;;;12.97;6.90;;;-0.70;60.50;;;;;;6190067;23;20750;-82
2020/12/27 07:33:34;;;;;;;7.65;4.00;;;-0.60;60.60;;;;;;6189422;23;20746;-83
2020/12/27 07:36:03;;;;;;;7.50;4.57;;;-0.60;60.60;;;;;;6187634;23;20003;-83
2020/12/27 07:39:01;;;;;;;6.90;4.03;;;-0.50;61.00;;;;;;6214139;23;20224;-83
2020/12/27 07:41:40;;;;;;;8.37;4.03;;;-0.40;60.70;;;;;;6187833;23;20248;-83
2020/12/27 07:44:14;;;;;;;8.20;4.20;;;-0.50;60.20;;;;;;6187697;23;20326;-83
2020/12/27 07:46:43;;;;;;;10.23;5.33;;;-0.50;60.50;;;;;;6187814;23;20231;-83
2020/12/27 07:49:10;;;;;;;21.90;10.57;;;-0.50;60.30;;;;;;6186591;23;21009;-83
2020/12/27 07:51:36;;;;;;;20.10;9.90;;;-0.50;60.60;;;;;;6189889;23;20247;-83
2020/12/27 07:54:03;;;;;;;23.90;10.83;;;-0.60;60.70;;;;;;6215906;23;20215;-83
2020/12/27 07:56:29;;;;;;;23.50;11.37;;;-0.50;61.10;;;;;;6190432;23;20335;-83
2020/12/27 07:59:00;;;;;;;21.30;9.73;;;-0.50;61.30;;;;;;6215884;23;20220;-83
2020/12/27 08:01:27;;;;;;;25.27;11.97;;;-0.40;61.20;;;;;;6188070;23;20313;-83
2020/12/27 08:04:06;;;;;;;23.80;10.97;;;-0.40;60.80;;;;;;6189649;23;20228;-83
2020/12/27 08:06:39;;;;;;;27.87;11.00;;;-0.50;60.70;;;;;;6190803;23;20891;-83
2020/12/27 08:09:09;;;;;;;23.30;11.03;;;-0.50;60.80;;;;;;6188003;23;20232;-83
2020/12/27 08:11:40;;;;;;;17.87;8.23;;;-0.40;60.80;;;;;;6189266;23;20343;-83
2020/12/27 08:14:08;;;;;;;13.43;6.57;;;-0.30;61.00;;;;;;6189657;23;20224;-83
2020/12/27 08:16:37;;;;;;;6.30;3.10;;;-0.20;60.60;;;;;;6188068;23;20672;-83
2020/12/27 08:19:14;;;;;;;7.43;3.47;;;-0.20;60.20;;;;;;6187204;23;20262;-83
2020/12/27 08:21:41;;;;;;;12.20;4.40;;;-0.30;60.10;;;;;;6188682;23;20729;-83
2020/12/27 08:24:12;;;;;;;9.77;4.43;;;-0.30;60.00;;;;;;6188316;23;20232;-83
2020/12/27 08:26:39;;;;;;;8.63;3.73;;;-0.30;60.20;;;;;;6188915;23;20243;-83
2020/12/27 08:29:25;;;;;;;11.87;5.60;;;-0.30;60.00;;;;;;6188762;23;20396;-83
2020/12/27 08:32:03;;;;;;;7.87;4.23;;;-0.30;60.20;;;;;;6188018;23;20587;-83
2020/12/27 08:34:29;;;;;;;14.63;5.87;;;-0.20;59.90;;;;;;6215162;23;20837;-83
2020/12/27 08:36:56;;;;;;;12.17;4.20;;;-0.30;60.00;;;;;;6188608;23;20251;-83
2020/12/27 08:39:41;;;;;;;3.80;2.40;;;-0.30;60.00;;;;;;6187954;23;20015;-83
2020/12/27 08:42:10;;;;;;;6.53;2.53;;;-0.30;60.00;;;;;;6188970;23;20414;-83
2020/12/27 08:44:52;;;;;;;5.40;2.80;;;-0.30;59.70;;;;;;6187874;23;20335;-84
2020/12/27 08:47:23;;;;;;;12.93;6.00;;;-0.20;59.90;;;;;;6190670;23;20235;-84
2020/12/27 08:50:03;;;;;;;10.40;5.03;;;-0.10;59.70;;;;;;6189807;23;20298;-84
2020/12/27 08:52:29;;;;;;;9.90;3.60;;;-0.10;59.80;;;;;;6190030;23;20255;-84
2020/12/27 08:55:12;;;;;;;5.93;3.27;;;-0.10;59.60;;;;;;6189485;23;20232;-84
2020/12/27 08:57:38;;;;;;;9.30;4.60;;;-0.20;59.40;;;;;;6190566;23;20001;-84
2020/12/27 09:00:10;;;;;;;8.37;4.20;;;-0.20;59.50;;;;;;6193977;23;20063;-85
2020/12/27 09:02:37;;;;;;;6.03;3.67;;;-0.20;59.50;;;;;;6194028;23;20865;-86
2020/12/27 09:05:13;;;;;;;5.00;2.67;;;-0.30;59.50;;;;;;6192841;23;20614;-85
2020/12/27 09:07:39;;;;;;;6.53;3.10;;;-0.20;59.70;;;;;;6221096;23;20289;-85
2020/12/27 09:10:12;;;;;;;12.27;3.90;;;-0.10;59.50;;;;;;6194431;23;20306;-85
2020/12/27 09:12:40;;;;;;;6.78;2.90;;;0.00;59.60;;;;;;6193281;23;20258;-85
2020/12/27 09:15:55;;;;;;;8.37;3.70;;;0.10;59.30;;;;;;6192910;23;20035;-85
2020/12/27 09:18:30;;;;;;;6.83;3.30;;;0.10;58.90;;;;;;6180031;23;20243;-85
2020/12/27 09:21:00;;;;;;;7.83;3.70;;;0.20;58.70;;;;;;6190971;23;20236;-85
2020/12/27 09:23:26;;;;;;;5.97;3.13;;;0.30;58.50;;;;;;6189828;23;20649;-85
2020/12/27 09:26:08;;;;;;;4.73;2.53;;;0.40;58.30;;;;;;6193617;23;20307;-84
2020/12/27 09:28:36;;;;;;;9.87;3.20;;;0.50;57.80;;;;;;6193737;23;20019;-85
2020/12/27 09:31:13;;;;;;;5.07;2.50;;;0.80;58.20;;;;;;6192329;23;20910;-85
2020/12/27 09:33:47;;;;;;;14.63;5.87;;;1.20;57.50;;;;;;6191775;23;20555;-85
2020/12/27 09:36:13;;;;;;;6.23;2.87;;;1.30;57.10;;;;;;6192853;23;20008;-85
2020/12/27 09:38:43;;;;;;;6.33;2.53;;;1.60;57.00;;;;;;6192414;23;20043;-85
2020/12/27 09:41:14;;;;;;;9.83;3.23;;;1.70;56.60;;;;;;6191938;23;20011;-85
2020/12/27 09:43:46;;;;;;;6.13;3.43;;;1.80;57.00;;;;;;6191889;23;20012;-85
2020/12/27 09:46:13;;;;;;;8.05;3.70;;;2.20;57.10;;;;;;6219738;23;20008;-85
2020/12/27 09:48:38;;;;;;;4.60;2.80;;;2.40;56.70;;;;;;6219605;23;20005;-85
2020/12/27 09:51:15;;;;;;;7.03;3.20;;;2.50;56.30;;;;;;6193174;23;20497;-85
2020/12/27 09:53:41;;;;;;;6.10;3.30;;;2.70;55.90;;;;;;6190111;23;20012;-85
2020/12/27 09:56:07;;;;;;;8.40;3.50;;;2.70;55.60;;;;;;6190489;23;20089;-82
2020/12/27 09:58:33;;;;;;;8.43;4.63;;;2.80;55.60;;;;;;6191401;23;20008;-85
2020/12/27 10:00:59;;;;;;;6.70;3.60;;;2.90;55.40;;;;;;6192393;23;20005;-85
2020/12/27 10:03:24;;;;;;;11.40;3.63;;;2.90;55.40;;;;;;6191973;23;20004;-85
2020/12/27 10:05:50;;;;;;;5.00;2.50;;;3.00;55.10;;;;;;6193031;23;20001;-85
2020/12/27 10:08:19;;;;;;;23.47;9.30;;;3.00;55.10;;;;;;6193559;23;20083;-85
2020/12/27 10:10:45;;;;;;;15.47;4.27;;;3.00;54.70;;;;;;6192135;23;20015;-85
2020/12/27 10:13:10;;;;;;;10.13;3.97;;;3.10;54.90;;;;;;6192708;23;20029;-85
2020/12/27 10:15:36;;;;;;;9.17;4.00;;;3.10;54.40;;;;;;6189792;23;20127;-85
2020/12/27 10:18:02;;;;;;;10.53;4.20;;;3.30;54.50;;;;;;6193409;23;20432;-85
2020/12/27 10:20:28;;;;;;;12.33;5.17;;;3.20;53.70;;;;;;6193069;23;20007;-85
2020/12/27 10:22:53;;;;;;;8.03;4.30;;;3.40;54.70;;;;;;6192434;23;20007;-85
2020/12/27 10:25:19;;;;;;;6.53;3.63;;;3.70;54.30;;;;;;6189532;23;20044;-85
2020/12/27 10:27:47;;;;;;;7.53;3.57;;;3.80;53.70;;;;;;6186366;23;20014;-87
2020/12/27 10:30:13;;;;;;;9.20;3.67;;;3.90;52.50;;;;;;6187575;23;20020;-81
2020/12/27 10:32:39;;;;;;;6.17;3.30;;;3.90;52.50;;;;;;6188092;23;20100;-81
2020/12/27 10:35:04;;;;;;;7.43;3.20;;;4.30;52.30;;;;;;6187896;23;20005;-82
2020/12/27 10:37:30;;;;;;;12.37;3.30;;;4.30;51.00;;;;;;6189570;23;20416;-84
2020/12/27 10:39:56;;;;;;;7.77;4.03;;;4.50;51.80;;;;;;6191967;23;20074;-83
2020/12/27 10:42:22;;;;;;;5.70;3.03;;;4.80;51.10;;;;;;6219381;23;20001;-83
2020/12/27 10:44:47;;;;;;;4.93;3.17;;;5.00;50.90;;;;;;6219287;23;20001;-83
2020/12/27 10:47:13;;;;;;;4.97;3.13;;;4.90;51.10;;;;;;6191583;23;20005;-83
2020/12/27 10:49:39;;;;;;;6.77;2.30;;;5.10;51.60;;;;;;6191729;23;20091;-83
2020/12/27 10:52:05;;;;;;;8.07;3.10;;;5.30;50.90;;;;;;6189781;23;20009;-83
2020/12/27 10:54:30;;;;;;;5.50;2.80;;;5.30;50.50;;;;;;6217592;23;20032;-83
2020/12/27 10:56:56;;;;;;;7.27;4.10;;;5.20;50.20;;;;;;6216558;23;19997;-83
2020/12/27 10:59:22;;;;;;;8.40;4.67;;;5.20;50.50;;;;;;6191195;23;20332;-83
2020/12/27 11:01:49;;;;;;;6.20;3.17;;;5.30;50.40;;;;;;6191366;23;20016;-83
2020/12/27 11:04:15;;;;;;;8.30;3.07;;;5.30;50.50;;;;;;6189675;23;20087;-83
2020/12/27 11:06:41;;;;;;;8.60;4.10;;;5.40;50.60;;;;;;6190839;23;20012;-83
2020/12/27 11:09:09;;;;;;;7.03;3.27;;;5.50;50.20;;;;;;6215479;23;20008;-83
2020/12/27 11:11:36;;;;;;;5.03;2.97;;;5.30;50.00;;;;;;6192408;23;20012;-83
2020/12/27 11:14:03;;;;;;;8.87;3.53;;;5.30;50.30;;;;;;6191771;23;20071;-83
2020/12/27 11:16:31;;;;;;;13.80;6.57;;;5.40;50.10;;;;;;6191623;23;20001;-83
2020/12/27 11:18:57;;;;;;;7.17;2.33;;;5.50;49.80;;;;;;6189885;23;20004;-83
2020/12/27 11:21:25;;;;;;;10.20;4.80;;;5.50;49.40;;;;;;6193821;23;20067;-83
2020/12/27 11:23:50;;;;;;;12.60;4.07;;;5.60;49.60;;;;;;6191842;23;20051;-83
2020/12/27 11:26:19;;;;;;;22.30;8.73;;;5.60;49.40;;;;;;6192716;23;20009;-83
2020/12/27 11:28:45;;;;;;;10.40;4.53;;;5.80;49.60;;;;;;6192306;23;20333;-83
2020/12/27 11:31:14;;;;;;;9.83;3.37;;;5.80;49.50;;;;;;6192978;23;20111;-84
2020/12/27 11:33:40;;;;;;;8.53;3.37;;;5.60;48.50;;;;;;6193599;23;20412;-83
2020/12/27 11:36:09;;;;;;;9.37;2.73;;;5.50;48.60;;;;;;6192108;23;20027;-83
2020/12/27 11:38:34;;;;;;;4.47;2.10;;;5.40;48.90;;;;;;6193160;23;20367;-83
2020/12/27 11:41:00;;;;;;;6.33;2.47;;;5.40;49.10;;;;;;6189163;23;20081;-83
2020/12/27 11:43:26;;;;;;;7.57;2.90;;;5.50;49.10;;;;;;6192726;23;20005;-83
2020/12/27 11:45:52;;;;;;;5.43;2.60;;;5.60;49.20;;;;;;6191946;23;20035;-83
2020/12/27 11:48:17;;;;;;;7.43;2.93;;;5.60;49.10;;;;;;6192353;23;20005;-83
2020/12/27 11:50:43;;;;;;;10.43;5.13;;;5.50;48.90;;;;;;6192876;23;20008;-83
2020/12/27 11:53:09;;;;;;;7.57;4.27;;;5.60;49.20;;;;;;6193065;23;20008;-83
2020/12/27 11:55:37;;;;;;;6.77;2.90;;;5.60;49.30;;;;;;6191987;23;20011;-83
2020/12/27 11:58:03;;;;;;;8.77;3.10;;;5.60;49.20;;;;;;6219707;23;19992;-83
2020/12/27 12:00:32;;;;;;;5.43;2.80;;;5.50;49.30;;;;;;6192851;23;20011;-83
2020/12/27 12:02:57;;;;;;;9.03;3.33;;;5.50;49.40;;;;;;6190466;23;20028;-83
2020/12/27 12:05:23;;;;;;;5.27;2.37;;;5.50;49.70;;;;;;6192366;23;20012;-83
2020/12/27 12:07:50;;;;;;;4.93;2.90;;;5.50;49.50;;;;;;6192215;23;20004;-83
2020/12/27 12:10:16;;;;;;;8.10;3.53;;;5.50;49.70;;;;;;6191421;23;20005;-83
2020/12/27 12:12:42;;;;;;;6.47;2.50;;;5.50;49.50;;;;;;6191104;23;20018;-83
2020/12/27 12:15:07;;;;;;;8.23;2.80;;;5.40;49.70;;;;;;6219833;23;20003;-83
2020/12/27 12:17:33;;;;;;;4.90;3.20;;;5.40;49.80;;;;;;6192983;23;20008;-83
2020/12/27 12:19:59;;;;;;;4.97;2.33;;;5.30;49.80;;;;;;6191946;23;20001;-82
2020/12/27 12:22:25;;;;;;;7.77;3.10;;;5.30;50.00;;;;;;6191115;23;20008;-83
2020/12/27 12:24:50;;;;;;;6.73;2.17;;;5.30;49.90;;;;;;6192078;23;20085;-83
2020/12/27 12:27:16;;;;;;;6.03;2.50;;;5.30;49.70;;;;;;6193096;23;20068;-83
2020/12/27 12:29:42;;;;;;;7.57;2.83;;;5.30;49.60;;;;;;6193053;23;20043;-83
2020/12/27 12:32:10;;;;;;;6.87;2.87;;;5.40;49.70;;;;;;6190010;23;20052;-83
2020/12/27 12:34:36;;;;;;;3.83;2.33;;;5.40;49.70;;;;;;6188355;23;20001;-83
2020/12/27 12:37:02;;;;;;;5.53;2.70;;;5.40;49.50;;;;;;6192059;23;20005;-83
2020/12/27 12:39:28;;;;;;;5.53;2.60;;;5.40;49.50;;;;;;6191007;23;20028;-83
2020/12/27 12:41:57;;;;;;;5.90;2.37;;;5.40;49.20;;;;;;6192313;23;20008;-83
2020/12/27 12:44:22;;;;;;;11.27;3.37;;;5.20;49.10;;;;;;6191281;23;20019;-83
2020/12/27 12:46:48;;;;;;;7.50;2.80;;;5.30;49.40;;;;;;6191438;23;20084;-83
2020/12/27 12:49:14;;;;;;;8.20;3.13;;;5.40;49.30;;;;;;6190393;23;20415;-83
2020/12/27 12:51:40;;;;;;;11.23;2.97;;;5.50;49.10;;;;;;6218664;23;20419;-83
2020/12/27 12:54:05;;;;;;;7.73;2.40;;;5.50;49.00;;;;;;6191958;23;20000;-83
2020/12/27 12:56:31;;;;;;;6.07;2.00;;;5.50;48.50;;;;;;6191144;23;20000;-83
2020/12/27 12:58:57;;;;;;;5.90;2.27;;;5.40;48.50;;;;;;6192415;23;20005;-82